createdAt,value
2022-10-18T00:01:06.365Z,1011.9
2022-10-18T00:02:21.680Z,1011.9
2022-10-18T00:03:37.958Z,1011.9
2022-10-18T00:04:54.268Z,1011.9
2022-10-18T00:06:10.550Z,1011.9
2022-10-18T00:07:26.841Z,1011.9
2022-10-18T00:08:43.136Z,1011.9
2022-10-18T00:09:59.443Z,1011.9
2022-10-18T00:11:15.713Z,1011.9
2022-10-18T00:12:32.018Z,1011.9
2022-10-18T00:13:48.303Z,1011.9
2022-10-18T00:15:04.602Z,1011.9
2022-10-18T00:16:20.893Z,1012
2022-10-18T00:17:37.185Z,1011.9
2022-10-18T00:18:52.495Z,1011.9
2022-10-18T00:20:08.784Z,1012
2022-10-18T00:21:25.077Z,1011.9
2022-10-18T00:22:41.358Z,1012
2022-10-18T00:23:57.654Z,1012
2022-10-18T00:25:13.946Z,1012
2022-10-18T00:26:30.252Z,1012
2022-10-18T00:27:46.530Z,1012
2022-10-18T00:29:02.830Z,1012.1
2022-10-18T00:30:19.121Z,1012.1
2022-10-18T00:31:35.412Z,1012
2022-10-18T00:32:51.707Z,1012
2022-10-18T00:34:08.002Z,1012
2022-10-18T00:35:23.305Z,1012.1
2022-10-18T00:36:39.603Z,1012
2022-10-18T00:37:55.887Z,1012.1
2022-10-18T00:39:12.179Z,1012.1
2022-10-18T00:40:28.479Z,1012.1
2022-10-18T00:41:44.772Z,1012.1
2022-10-18T00:43:01.068Z,1012.1
2022-10-18T00:44:17.351Z,1012
2022-10-18T00:45:33.654Z,1012.1
2022-10-18T00:46:49.945Z,1012.2
2022-10-18T00:48:06.235Z,1012.1
2022-10-18T00:49:22.517Z,1012.1
2022-10-18T00:50:38.812Z,1012.2
2022-10-18T00:51:54.115Z,1012.2
2022-10-18T00:53:10.412Z,1012.1
2022-10-18T00:54:26.719Z,1012.2
2022-10-18T00:55:43.008Z,1012.2
2022-10-18T00:56:59.286Z,1012.2
2022-10-18T00:58:15.586Z,1012.2
2022-10-18T00:59:31.884Z,1012.2
2022-10-18T01:00:48.176Z,1012.2
2022-10-18T01:02:04.467Z,1012.2
2022-10-18T01:03:20.747Z,1012.2
2022-10-18T01:04:37.041Z,1012.2
2022-10-18T01:05:53.342Z,1012.2
2022-10-18T01:07:09.638Z,1012.2
2022-10-18T01:08:24.940Z,1012.2
2022-10-18T01:09:41.245Z,1012.2
2022-10-18T01:10:57.528Z,1012.2
2022-10-18T01:12:13.840Z,1012.2
2022-10-18T01:13:30.114Z,1012.2
2022-10-18T01:14:46.411Z,1012.2
2022-10-18T01:16:02.696Z,1012.2
2022-10-18T01:17:18.991Z,1012.2
2022-10-18T01:18:35.293Z,1012.2
2022-10-18T01:19:51.565Z,1012.2
2022-10-18T01:21:07.855Z,1012.2
2022-10-18T01:22:24.153Z,1012.2
2022-10-18T01:23:40.448Z,1012.3
2022-10-18T01:24:55.765Z,1012.3
2022-10-18T01:26:12.044Z,1012.3
2022-10-18T01:27:28.343Z,1012.3
2022-10-18T01:28:44.651Z,1012.3
2022-10-18T01:30:00.919Z,1012.3
2022-10-18T01:31:17.226Z,1012.3
2022-10-18T01:32:33.502Z,1012.4
2022-10-18T01:33:49.804Z,1012.3
2022-10-18T01:35:06.106Z,1012.3
2022-10-18T01:36:22.393Z,1012.3
2022-10-18T01:37:38.690Z,1012.3
2022-10-18T01:38:54.965Z,1012.3
2022-10-18T01:40:11.281Z,1012.3
2022-10-18T01:41:26.568Z,1012.3
2022-10-18T01:42:42.861Z,1012.3
2022-10-18T01:43:59.178Z,1012.4
2022-10-18T01:45:15.443Z,1012.3
2022-10-18T01:46:31.743Z,1012.4
2022-10-18T01:47:48.049Z,1012.3
2022-10-18T01:49:04.336Z,1012.3
2022-10-18T01:50:20.626Z,1012.3
2022-10-18T01:51:36.920Z,1012.3
2022-10-18T01:52:53.201Z,1012.3
2022-10-18T01:54:09.504Z,1012.3
2022-10-18T01:55:25.000Z,1012.3
2022-10-18T01:56:42.096Z,1012.2
2022-10-18T01:57:57.398Z,1012.2
2022-10-18T01:59:13.694Z,1012.2
2022-10-18T02:00:29.991Z,1012.2
2022-10-18T02:01:46.260Z,1012.2
2022-10-18T02:03:02.572Z,1012.2
2022-10-18T02:04:18.849Z,1012.3
2022-10-18T02:05:35.154Z,1012.3
2022-10-18T02:06:51.432Z,1012.2
2022-10-18T02:08:07.728Z,1012.3
2022-10-18T02:09:24.020Z,1012.3
2022-10-18T02:10:40.310Z,1012.3
2022-10-18T02:11:56.617Z,1012.2
2022-10-18T02:13:12.910Z,1012.2
2022-10-18T02:14:28.212Z,1012.2
2022-10-18T02:15:44.516Z,1012.1
2022-10-18T02:17:00.789Z,1012.2
2022-10-18T02:18:17.083Z,1012.2
2022-10-18T02:19:33.381Z,1012.2
2022-10-18T02:20:49.686Z,1012.1
2022-10-18T02:22:05.960Z,1012.1
2022-10-18T02:23:22.264Z,1012.2
2022-10-18T02:24:38.557Z,1012.2
2022-10-18T02:25:54.854Z,1012.2
2022-10-18T02:27:11.145Z,1012.2
2022-10-18T02:28:27.426Z,1012.2
2022-10-18T02:29:43.724Z,1012.2
2022-10-18T02:30:59.018Z,1012.3
2022-10-18T02:32:15.328Z,1012.3
2022-10-18T02:33:31.615Z,1012.3
2022-10-18T02:34:47.903Z,1012.3
2022-10-18T02:36:04.192Z,1012.3
2022-10-18T02:37:20.505Z,1012.4
2022-10-18T02:38:36.799Z,1012.3
2022-10-18T02:39:53.073Z,1012.3
2022-10-18T02:41:09.373Z,1012.3
2022-10-18T02:42:25.667Z,1012.3
2022-10-18T02:43:41.942Z,1012.3
2022-10-18T02:44:58.267Z,1012.3
2022-10-18T02:46:14.542Z,1012.3
2022-10-18T02:47:29.850Z,1012.3
2022-10-18T02:48:46.142Z,1012.2
2022-10-18T02:50:02.437Z,1012.2
2022-10-18T02:51:18.723Z,1012.2
2022-10-18T02:52:35.022Z,1012.2
2022-10-18T02:53:51.299Z,1012.3
2022-10-18T02:55:07.599Z,1012.2
2022-10-18T02:56:23.891Z,1012.3
2022-10-18T02:57:40.178Z,1012.3
2022-10-18T02:58:56.485Z,1012.3
2022-10-18T03:00:12.768Z,1012.4
2022-10-18T03:01:29.074Z,1012.4
2022-10-18T03:02:45.347Z,1012.4
2022-10-18T03:04:00.656Z,1012.5
2022-10-18T03:05:16.950Z,1012.5
2022-10-18T03:06:33.243Z,1012.5
2022-10-18T03:07:49.538Z,1012.5
2022-10-18T03:09:05.842Z,1012.5
2022-10-18T03:10:22.117Z,1012.4
2022-10-18T03:11:38.416Z,1012.5
2022-10-18T03:12:54.701Z,1012.4
2022-10-18T03:14:10.997Z,1012.4
2022-10-18T03:15:27.299Z,1012.4
2022-10-18T03:16:43.582Z,1012.4
2022-10-18T03:17:59.873Z,1012.5
2022-10-18T03:19:16.172Z,1012.5
2022-10-18T03:20:31.476Z,1012.4
2022-10-18T03:21:47.772Z,1012.4
2022-10-18T03:23:04.057Z,1012.4
2022-10-18T03:24:20.351Z,1012.4
2022-10-18T03:25:36.655Z,1012.5
2022-10-18T03:26:52.944Z,1012.4
2022-10-18T03:28:09.239Z,1012.5
2022-10-18T03:29:25.529Z,1012.4
2022-10-18T03:30:41.830Z,1012.5
2022-10-18T03:31:58.119Z,1012.4
2022-10-18T03:33:14.395Z,1012.4
2022-10-18T03:34:30.695Z,1012.4
2022-10-18T03:35:46.989Z,1012.4
2022-10-18T03:37:02.303Z,1012.4
2022-10-18T03:38:18.592Z,1012.4
2022-10-18T03:39:34.880Z,1012.5
2022-10-18T03:40:51.170Z,1012.4
2022-10-18T03:42:07.471Z,1012.5
2022-10-18T03:43:23.759Z,1012.5
2022-10-18T03:44:39.078Z,1012.5
2022-10-18T03:45:55.367Z,1012.5
2022-10-18T03:47:11.664Z,1012.5
2022-10-18T03:48:27.954Z,1012.5
2022-10-18T03:49:44.244Z,1012.5
2022-10-18T03:51:00.526Z,1012.5
2022-10-18T03:52:16.831Z,1012.5
2022-10-18T03:53:33.120Z,1012.5
2022-10-18T03:54:49.416Z,1012.5
2022-10-18T03:56:05.711Z,1012.5
2022-10-18T03:57:21.991Z,1012.5
2022-10-18T03:58:38.286Z,1012.5
2022-10-18T03:59:54.574Z,1012.5
2022-10-18T04:01:09.899Z,1012.4
2022-10-18T04:02:26.177Z,1012.5
2022-10-18T04:03:42.485Z,1012.5
2022-10-18T04:04:58.770Z,1012.5
2022-10-18T04:06:15.057Z,1012.5
2022-10-18T04:07:31.354Z,1012.4
2022-10-18T04:08:47.643Z,1012.5
2022-10-18T04:10:03.928Z,1012.4
2022-10-18T04:11:20.220Z,1012.4
2022-10-18T04:12:36.519Z,1012.4
2022-10-18T04:13:52.807Z,1012.4
2022-10-18T04:15:09.107Z,1012.3
2022-10-18T04:16:25.390Z,1012.3
2022-10-18T04:17:40.701Z,1012.3
2022-10-18T04:18:56.998Z,1012.3
2022-10-18T04:20:13.286Z,1012.3
2022-10-18T04:21:29.578Z,1012.3
2022-10-18T04:22:45.885Z,1012.3
2022-10-18T04:24:02.167Z,1012.3
2022-10-18T04:25:18.466Z,1012.3
2022-10-18T04:26:34.748Z,1012.3
2022-10-18T04:27:51.056Z,1012.2
2022-10-18T04:29:07.335Z,1012.3
2022-10-18T04:30:23.642Z,1012.3
2022-10-18T04:31:39.922Z,1012.3
2022-10-18T04:32:56.215Z,1012.3
2022-10-18T04:34:11.527Z,1012.3
2022-10-18T04:35:27.818Z,1012.3
2022-10-18T04:36:44.107Z,1012.3
2022-10-18T04:38:00.392Z,1012.3
2022-10-18T04:39:16.694Z,1012.3
2022-10-18T04:40:32.977Z,1012.3
2022-10-18T04:41:49.274Z,1012.3
2022-10-18T04:43:05.570Z,1012.3
2022-10-18T04:44:21.871Z,1012.3
2022-10-18T04:45:38.159Z,1012.3
2022-10-18T04:46:54.448Z,1012.3
2022-10-18T04:48:10.741Z,1012.4
2022-10-18T04:49:27.040Z,1012.4
2022-10-18T04:50:42.341Z,1012.4
2022-10-18T04:51:58.641Z,1012.3
2022-10-18T04:53:14.925Z,1012.3
2022-10-18T04:54:31.225Z,1012.3
2022-10-18T04:55:47.509Z,1012.3
2022-10-18T04:57:03.804Z,1012.2
2022-10-18T04:58:20.091Z,1012.2
2022-10-18T04:59:36.390Z,1012.2
2022-10-18T05:00:52.683Z,1012.2
2022-10-18T05:02:08.974Z,1012.2
2022-10-18T05:03:25.276Z,1012.2
2022-10-18T05:04:41.557Z,1012.1
2022-10-18T05:05:57.853Z,1012.1
2022-10-18T05:07:13.169Z,1012.1
2022-10-18T05:08:29.449Z,1012.1
2022-10-18T05:09:45.745Z,1012.1
2022-10-18T05:11:02.038Z,1012.1
2022-10-18T05:12:18.328Z,1012.1
2022-10-18T05:13:34.619Z,1012.1
2022-10-18T05:14:50.920Z,1012.1
2022-10-18T05:16:07.203Z,1012
2022-10-18T05:17:23.496Z,1012
2022-10-18T05:18:39.800Z,1012
2022-10-18T05:19:56.092Z,1012.1
2022-10-18T05:21:12.329Z,1012
2022-10-18T05:22:28.614Z,1012
2022-10-18T05:23:43.873Z,1011.9
2022-10-18T05:25:00.117Z,1011.9
2022-10-18T05:26:16.368Z,1011.9
2022-10-18T05:27:32.644Z,1012
2022-10-18T05:28:48.942Z,1011.9
2022-10-18T05:30:05.193Z,1011.9
2022-10-18T05:31:21.429Z,1011.9
2022-10-18T05:32:37.684Z,1011.8
2022-10-18T05:33:53.915Z,1011.8
2022-10-18T05:35:10.166Z,1011.7
2022-10-18T05:36:26.405Z,1011.8
2022-10-18T05:37:42.639Z,1011.7
2022-10-18T05:38:58.882Z,1011.8
2022-10-18T05:40:14.122Z,1011.7
2022-10-18T05:41:30.371Z,1011.8
2022-10-18T05:42:46.596Z,1011.8
2022-10-18T05:44:02.839Z,1011.8
2022-10-18T05:45:19.080Z,1011.8
2022-10-18T05:46:35.318Z,1011.8
2022-10-18T05:47:51.557Z,1011.8
2022-10-18T05:49:07.795Z,1011.8
2022-10-18T05:50:24.044Z,1011.8
2022-10-18T05:51:40.269Z,1011.7
2022-10-18T05:52:56.525Z,1011.7
2022-10-18T05:54:12.748Z,1011.7
2022-10-18T05:55:28.979Z,1011.7
2022-10-18T05:56:44.244Z,1011.7
2022-10-18T05:58:00.478Z,1011.6
2022-10-18T05:59:16.718Z,1011.6
2022-10-18T06:00:32.964Z,1011.6
2022-10-18T06:01:49.195Z,1011.6
2022-10-18T06:03:05.438Z,1011.5
2022-10-18T06:04:21.664Z,1011.5
2022-10-18T06:05:37.908Z,1011.5
2022-10-18T06:06:54.152Z,1011.6
2022-10-18T06:08:10.387Z,1011.6
2022-10-18T06:09:26.621Z,1011.6
2022-10-18T06:10:42.854Z,1011.6
2022-10-18T06:11:59.096Z,1011.6
2022-10-18T06:13:14.358Z,1011.6
2022-10-18T06:14:30.601Z,1011.7
2022-10-18T06:15:46.825Z,1011.7
2022-10-18T06:17:03.076Z,1011.6
2022-10-18T06:18:19.305Z,1011.7
2022-10-18T06:19:35.546Z,1011.7
2022-10-18T06:20:51.786Z,1011.7
2022-10-18T06:22:08.037Z,1011.7
2022-10-18T06:23:24.272Z,1011.7
2022-10-18T06:24:40.509Z,1011.7
2022-10-18T06:25:56.739Z,1011.7
2022-10-18T06:27:12.977Z,1011.7
2022-10-18T06:28:29.206Z,1011.7
2022-10-18T06:29:44.486Z,1011.7
2022-10-18T06:31:00.702Z,1011.7
2022-10-18T06:32:16.959Z,1011.7
2022-10-18T06:33:33.184Z,1011.7
2022-10-18T06:34:49.421Z,1011.7
2022-10-18T06:36:05.670Z,1011.7
2022-10-18T06:37:21.897Z,1011.7
2022-10-18T06:38:38.139Z,1011.7
2022-10-18T06:39:54.386Z,1011.7
2022-10-18T06:41:10.619Z,1011.6
2022-10-18T06:42:26.861Z,1011.6
2022-10-18T06:43:43.092Z,1011.6
2022-10-18T06:44:59.327Z,1011.7
2022-10-18T06:46:14.589Z,1011.7
2022-10-18T06:47:30.834Z,1011.7
2022-10-18T06:48:47.058Z,1011.7
2022-10-18T06:50:03.303Z,1011.7
2022-10-18T06:51:19.548Z,1011.8
2022-10-18T06:52:35.776Z,1011.8
2022-10-18T06:53:52.011Z,1011.7
2022-10-18T06:55:08.264Z,1011.7
2022-10-18T06:56:24.487Z,1011.7
2022-10-18T06:57:40.740Z,1011.7
2022-10-18T06:58:56.966Z,1011.8
2022-10-18T07:00:13.212Z,1011.8
2022-10-18T07:01:29.444Z,1011.7
2022-10-18T07:02:44.702Z,1011.7
2022-10-18T07:04:00.939Z,1011.7
2022-10-18T07:05:17.180Z,1011.6
2022-10-18T07:06:33.416Z,1011.6
2022-10-18T07:07:49.649Z,1011.6
2022-10-18T07:09:05.893Z,1011.6
2022-10-18T07:10:22.133Z,1011.6
2022-10-18T07:11:38.361Z,1011.5
2022-10-18T07:12:54.610Z,1011.5
2022-10-18T07:14:10.851Z,1011.6
2022-10-18T07:15:27.094Z,1011.5
2022-10-18T07:16:43.328Z,1011.5
2022-10-18T07:17:59.571Z,1011.5
2022-10-18T07:19:14.808Z,1011.5
2022-10-18T07:20:31.057Z,1011.5
2022-10-18T07:21:47.299Z,1011.5
2022-10-18T07:23:03.527Z,1011.5
2022-10-18T07:24:19.761Z,1011.4
2022-10-18T07:25:36.006Z,1011.4
2022-10-18T07:26:52.244Z,1011.4
2022-10-18T07:28:08.488Z,1011.4
2022-10-18T07:29:24.733Z,1011.4
2022-10-18T07:30:40.973Z,1011.5
2022-10-18T07:31:57.202Z,1011.4
2022-10-18T07:33:13.445Z,1011.4
2022-10-18T07:34:29.693Z,1011.4
2022-10-18T07:35:44.925Z,1011.4
2022-10-18T07:37:01.171Z,1011.4
2022-10-18T07:38:17.413Z,1011.4
2022-10-18T07:39:33.653Z,1011.4
2022-10-18T07:40:49.888Z,1011.4
2022-10-18T07:42:06.139Z,1011.4
2022-10-18T07:43:22.359Z,1011.4
2022-10-18T07:44:38.609Z,1011.4
2022-10-18T07:45:54.837Z,1011.4
2022-10-18T07:47:11.088Z,1011.4
2022-10-18T07:48:27.324Z,1011.3
2022-10-18T07:49:43.560Z,1011.3
2022-10-18T07:50:59.794Z,1011.3
2022-10-18T07:52:15.044Z,1011.2
2022-10-18T07:53:31.296Z,1011.2
2022-10-18T07:54:47.524Z,1011.2
2022-10-18T07:56:03.772Z,1011.3
2022-10-18T07:57:19.997Z,1011.3
2022-10-18T07:58:36.235Z,1011.2
2022-10-18T07:59:51.505Z,1011.3
2022-10-18T08:01:07.734Z,1011.3
2022-10-18T08:02:23.991Z,1011.2
2022-10-18T08:03:40.216Z,1011.2
2022-10-18T08:04:56.474Z,1011.2
2022-10-18T08:06:12.695Z,1011.3
2022-10-18T08:07:28.929Z,1011.2
2022-10-18T08:08:45.182Z,1011.3
2022-10-18T08:10:01.418Z,1011.3
2022-10-18T08:11:17.647Z,1011.3
2022-10-18T08:12:33.885Z,1011.3
2022-10-18T08:13:50.131Z,1011.4
2022-10-18T08:15:06.373Z,1011.5
2022-10-18T08:16:21.620Z,1011.5
2022-10-18T08:17:37.861Z,1011.5
2022-10-18T08:18:54.097Z,1011.7
2022-10-18T08:20:10.336Z,1011.8
2022-10-18T08:21:26.575Z,1012
2022-10-18T08:22:42.810Z,1012.1
2022-10-18T08:23:59.058Z,1012.2
2022-10-18T08:25:15.301Z,1012.3
2022-10-18T08:26:31.527Z,1012.2
2022-10-18T08:27:47.777Z,1012.2
2022-10-18T08:29:04.012Z,1012.1
2022-10-18T08:30:20.254Z,1012
2022-10-18T08:31:36.485Z,1012
2022-10-18T08:32:51.744Z,1012
2022-10-18T08:34:07.981Z,1011.9
2022-10-18T08:35:24.211Z,1011.9
2022-10-18T08:36:40.449Z,1011.9
2022-10-18T08:37:56.693Z,1011.9
2022-10-18T08:39:12.928Z,1012
2022-10-18T08:40:29.188Z,1012
2022-10-18T08:41:45.412Z,1012
2022-10-18T08:43:01.645Z,1012
2022-10-18T08:44:17.886Z,1012.1
2022-10-18T08:45:34.130Z,1012.1
2022-10-18T08:46:50.373Z,1012.1
2022-10-18T08:48:06.599Z,1012
2022-10-18T08:49:21.874Z,1011.9
2022-10-18T08:50:38.088Z,1011.9
2022-10-18T08:51:54.341Z,1011.9
2022-10-18T08:53:10.586Z,1011.8
2022-10-18T08:54:26.820Z,1011.8
2022-10-18T08:55:43.057Z,1011.7
2022-10-18T08:56:59.292Z,1011.7
2022-10-18T08:58:15.531Z,1011.7
2022-10-18T08:59:31.776Z,1011.8
2022-10-18T09:00:48.004Z,1011.8
2022-10-18T09:02:04.247Z,1011.8
2022-10-18T09:03:20.480Z,1011.9
2022-10-18T09:04:36.723Z,1011.9
2022-10-18T09:05:51.968Z,1012
2022-10-18T09:07:08.220Z,1012.1
2022-10-18T09:08:24.449Z,1012
2022-10-18T09:09:40.697Z,1012
2022-10-18T09:10:56.926Z,1012
2022-10-18T09:12:13.170Z,1012
2022-10-18T09:13:29.412Z,1011.9
2022-10-18T09:14:45.649Z,1011.9
2022-10-18T09:16:01.877Z,1012
2022-10-18T09:17:18.125Z,1012
2022-10-18T09:18:34.355Z,1012
2022-10-18T09:19:50.590Z,1012.1
2022-10-18T09:21:06.831Z,1012.1
2022-10-18T09:22:22.104Z,1012.2
2022-10-18T09:23:38.328Z,1012.2
2022-10-18T09:24:54.578Z,1012.3
2022-10-18T09:26:10.809Z,1012.3
2022-10-18T09:27:27.037Z,1012.3
2022-10-18T09:28:43.277Z,1012.2
2022-10-18T09:29:59.521Z,1012.2
2022-10-18T09:31:15.771Z,1012.1
2022-10-18T09:32:32.014Z,1012
2022-10-18T09:33:48.236Z,1012
2022-10-18T09:35:04.490Z,1011.9
2022-10-18T09:36:20.707Z,1012
2022-10-18T09:37:36.954Z,1011.9
2022-10-18T09:38:52.208Z,1011.9
2022-10-18T09:40:08.444Z,1011.9
2022-10-18T09:41:24.678Z,1011.9
2022-10-18T09:42:40.932Z,1011.9
2022-10-18T09:43:57.164Z,1011.9
2022-10-18T09:45:13.412Z,1011.9
2022-10-18T09:46:29.628Z,1011.8
2022-10-18T09:47:45.888Z,1011.8
2022-10-18T09:49:02.109Z,1011.7
2022-10-18T09:50:18.354Z,1011.7
2022-10-18T09:51:34.610Z,1011.7
2022-10-18T09:52:50.839Z,1011.8
2022-10-18T09:54:07.077Z,1011.8
2022-10-18T09:55:22.325Z,1011.8
2022-10-18T09:56:38.566Z,1011.8
2022-10-18T09:57:54.797Z,1011.8
2022-10-18T09:59:11.054Z,1011.9
2022-10-18T10:00:27.270Z,1012
2022-10-18T10:01:43.516Z,1012
2022-10-18T10:02:59.758Z,1012
2022-10-18T10:04:15.994Z,1012
2022-10-18T10:05:32.233Z,1012.1
2022-10-18T10:06:48.473Z,1012.1
2022-10-18T10:08:04.712Z,1012.1
2022-10-18T10:09:20.955Z,1012.1
2022-10-18T10:10:37.186Z,1012.1
2022-10-18T10:11:52.437Z,1012.2
2022-10-18T10:13:08.677Z,1012.2
2022-10-18T10:14:24.932Z,1012.2
2022-10-18T10:15:41.157Z,1012.2
2022-10-18T10:16:57.397Z,1012.3
2022-10-18T10:18:13.623Z,1012.3
2022-10-18T10:19:29.874Z,1012.3
2022-10-18T10:20:46.112Z,1012.4
2022-10-18T10:22:02.355Z,1012.4
2022-10-18T10:23:18.591Z,1012.4
2022-10-18T10:24:34.833Z,1012.4
2022-10-18T10:25:51.067Z,1012.4
2022-10-18T10:27:07.307Z,1012.4
2022-10-18T10:28:22.566Z,1012.4
2022-10-18T10:29:38.799Z,1012.4
2022-10-18T10:30:55.042Z,1012.4
2022-10-18T10:32:11.267Z,1012.4
2022-10-18T10:33:27.530Z,1012.4
2022-10-18T10:34:43.747Z,1012.4
2022-10-18T10:35:59.994Z,1012.4
2022-10-18T10:37:16.222Z,1012.3
2022-10-18T10:38:32.469Z,1012.3
2022-10-18T10:39:48.695Z,1012.3
2022-10-18T10:41:04.949Z,1012.3
2022-10-18T10:42:21.181Z,1012.3
2022-10-18T10:43:37.411Z,1012.4
2022-10-18T10:44:52.681Z,1012.3
2022-10-18T10:46:08.903Z,1012.3
2022-10-18T10:47:25.157Z,1012.3
2022-10-18T10:48:41.379Z,1012.3
2022-10-18T10:49:57.620Z,1012.3
2022-10-18T10:51:13.861Z,1012.3
2022-10-18T10:52:30.098Z,1012.2
2022-10-18T10:53:46.350Z,1012.2
2022-10-18T10:55:02.572Z,1012.2
2022-10-18T10:56:18.837Z,1012.2
2022-10-18T10:57:35.069Z,1012.3
2022-10-18T10:58:51.306Z,1012.2
2022-10-18T11:00:07.525Z,1012.3
2022-10-18T11:01:22.783Z,1012.3
2022-10-18T11:02:39.027Z,1012.3
2022-10-18T11:03:55.271Z,1012.4
2022-10-18T11:05:11.508Z,1012.5
2022-10-18T11:06:27.749Z,1012.4
2022-10-18T11:07:43.997Z,1012.5
2022-10-18T11:09:00.226Z,1012.5
2022-10-18T11:10:16.450Z,1012.5
2022-10-18T11:11:32.710Z,1012.5
2022-10-18T11:12:48.931Z,1012.5
2022-10-18T11:14:05.184Z,1012.4
2022-10-18T11:15:21.424Z,1012.4
2022-10-18T11:16:37.646Z,1012.4
2022-10-18T11:17:52.918Z,1012.4
2022-10-18T11:19:09.154Z,1012.4
2022-10-18T11:20:25.387Z,1012.4
2022-10-18T11:21:41.636Z,1012.4
2022-10-18T11:22:57.863Z,1012.4
2022-10-18T11:24:14.103Z,1012.4
2022-10-18T11:25:30.345Z,1012.4
2022-10-18T11:26:46.579Z,1012.4
2022-10-18T11:28:02.833Z,1012.4
2022-10-18T11:29:19.063Z,1012.4
2022-10-18T11:30:35.302Z,1012.4
2022-10-18T11:31:51.542Z,1012.4
2022-10-18T11:33:07.776Z,1012.4
2022-10-18T11:34:23.021Z,1012.4
2022-10-18T11:35:39.264Z,1012.5
2022-10-18T11:36:55.513Z,1012.5
2022-10-18T11:38:11.738Z,1012.5
2022-10-18T11:39:27.976Z,1012.5
2022-10-18T11:40:44.229Z,1012.5
2022-10-18T11:42:00.465Z,1012.5
2022-10-18T11:43:16.689Z,1012.5
2022-10-18T11:44:32.933Z,1012.5
2022-10-18T11:45:49.178Z,1012.5
2022-10-18T11:47:05.412Z,1012.5
2022-10-18T11:48:21.652Z,1012.5
2022-10-18T11:49:37.900Z,1012.5
2022-10-18T11:50:53.139Z,1012.5
2022-10-18T11:52:09.387Z,1012.5
2022-10-18T11:53:25.631Z,1012.5
2022-10-18T11:54:41.861Z,1012.5
2022-10-18T11:55:58.093Z,1012.5
2022-10-18T11:57:14.331Z,1012.5
2022-10-18T11:58:30.581Z,1012.5
2022-10-18T11:59:46.815Z,1012.6
2022-10-18T12:01:03.062Z,1012.6
2022-10-18T12:02:19.298Z,1012.6
2022-10-18T12:03:35.544Z,1012.6
2022-10-18T12:04:51.766Z,1012.6
2022-10-18T12:06:08.015Z,1012.7
2022-10-18T12:07:23.263Z,1012.7
2022-10-18T12:08:39.508Z,1012.6
2022-10-18T12:09:55.747Z,1012.6
2022-10-18T12:11:11.981Z,1012.7
2022-10-18T12:12:28.218Z,1012.6
2022-10-18T12:13:44.472Z,1012.7
2022-10-18T12:15:00.694Z,1012.7
2022-10-18T12:16:16.938Z,1012.7
2022-10-18T12:17:32.197Z,1012.6
2022-10-18T12:18:48.454Z,1012.7
2022-10-18T12:20:04.674Z,1012.7
2022-10-18T12:21:20.919Z,1012.7
2022-10-18T12:22:37.163Z,1012.7
2022-10-18T12:23:53.402Z,1012.6
2022-10-18T12:25:09.635Z,1012.6
2022-10-18T12:26:25.887Z,1012.6
2022-10-18T12:27:42.112Z,1012.6
2022-10-18T12:28:58.350Z,1012.6
2022-10-18T12:30:14.595Z,1012.6
2022-10-18T12:31:30.828Z,1012.6
2022-10-18T12:32:47.067Z,1012.6
2022-10-18T12:34:02.317Z,1012.6
2022-10-18T12:35:18.556Z,1012.6
2022-10-18T12:36:34.803Z,1012.6
2022-10-18T12:37:51.040Z,1012.6
2022-10-18T12:39:07.285Z,1012.6
2022-10-18T12:40:23.512Z,1012.6
2022-10-18T12:41:39.767Z,1012.6
2022-10-18T12:42:55.989Z,1012.5
2022-10-18T12:44:12.238Z,1012.6
2022-10-18T12:45:28.473Z,1012.5
2022-10-18T12:46:44.703Z,1012.5
2022-10-18T12:48:00.947Z,1012.5
2022-10-18T12:49:17.189Z,1012.5
2022-10-18T12:50:32.437Z,1012.5
2022-10-18T12:51:48.679Z,1012.6
2022-10-18T12:53:04.916Z,1012.5
2022-10-18T12:54:21.170Z,1012.5
2022-10-18T12:55:37.394Z,1012.5
2022-10-18T12:56:53.649Z,1012.5
2022-10-18T12:58:09.870Z,1012.5
2022-10-18T12:59:26.113Z,1012.5
2022-10-18T13:00:42.362Z,1012.4
2022-10-18T13:01:58.590Z,1012.4
2022-10-18T13:03:14.837Z,1012.3
2022-10-18T13:04:31.063Z,1012.3
2022-10-18T13:05:47.307Z,1012.3
2022-10-18T13:07:02.561Z,1012.4
2022-10-18T13:08:18.797Z,1012.4
2022-10-18T13:09:35.040Z,1012.4
2022-10-18T13:10:51.278Z,1012.4
2022-10-18T13:12:07.515Z,1012.4
2022-10-18T13:13:23.757Z,1012.5
2022-10-18T13:14:40.005Z,1012.5
2022-10-18T13:15:56.239Z,1012.6
2022-10-18T13:17:12.468Z,1012.5
2022-10-18T13:18:28.705Z,1012.5
2022-10-18T13:19:44.959Z,1012.5
2022-10-18T13:21:01.185Z,1012.5
2022-10-18T13:22:17.425Z,1012.5
2022-10-18T13:23:32.684Z,1012.5
2022-10-18T13:24:48.926Z,1012.6
2022-10-18T13:26:05.162Z,1012.6
2022-10-18T13:27:21.412Z,1012.6
2022-10-18T13:28:37.639Z,1012.6
2022-10-18T13:29:53.887Z,1012.5
2022-10-18T13:31:10.113Z,1012.5
2022-10-18T13:32:26.354Z,1012.5
2022-10-18T13:33:42.593Z,1012.4
2022-10-18T13:34:58.826Z,1012.5
2022-10-18T13:36:15.066Z,1012.5
2022-10-18T13:37:31.306Z,1012.5
2022-10-18T13:38:47.556Z,1012.5
2022-10-18T13:40:02.802Z,1012.5
2022-10-18T13:41:19.052Z,1012.5
2022-10-18T13:42:35.285Z,1012.5
2022-10-18T13:43:51.522Z,1012.5
2022-10-18T13:45:07.773Z,1012.5
2022-10-18T13:46:23.998Z,1012.5
2022-10-18T13:47:40.230Z,1012.4
2022-10-18T13:48:56.479Z,1012.4
2022-10-18T13:50:12.724Z,1012.5
2022-10-18T13:51:28.968Z,1012.5
2022-10-18T13:52:45.207Z,1012.5
2022-10-18T13:54:01.439Z,1012.6
2022-10-18T13:55:17.668Z,1012.5
2022-10-18T13:56:32.935Z,1012.5
2022-10-18T13:57:49.174Z,1012.5
2022-10-18T13:59:05.402Z,1012.5
2022-10-18T14:00:21.639Z,1012.5
2022-10-18T14:01:37.895Z,1012.6
2022-10-18T14:02:54.129Z,1012.6
2022-10-18T14:04:10.366Z,1012.6
2022-10-18T14:05:26.611Z,1012.6
2022-10-18T14:06:42.841Z,1012.7
2022-10-18T14:07:59.092Z,1012.7
2022-10-18T14:09:15.329Z,1012.7
2022-10-18T14:10:31.562Z,1012.8
2022-10-18T14:11:47.805Z,1012.8
2022-10-18T14:13:03.058Z,1012.8
2022-10-18T14:14:19.289Z,1012.8
2022-10-18T14:15:35.534Z,1012.8
2022-10-18T14:16:51.771Z,1012.8
2022-10-18T14:18:08.009Z,1012.8
2022-10-18T14:19:24.247Z,1012.8
2022-10-18T14:20:40.492Z,1012.8
2022-10-18T14:21:56.721Z,1012.7
2022-10-18T14:23:12.966Z,1012.8
2022-10-18T14:24:29.202Z,1012.7
2022-10-18T14:25:45.443Z,1012.8
2022-10-18T14:27:01.686Z,1012.8
2022-10-18T14:28:17.925Z,1012.8
2022-10-18T14:29:33.170Z,1012.8
2022-10-18T14:30:49.413Z,1012.9
2022-10-18T14:32:05.651Z,1012.8
2022-10-18T14:33:21.892Z,1012.8
2022-10-18T14:34:38.133Z,1012.8
2022-10-18T14:37:10.621Z,1012.9
2022-10-18T14:38:26.862Z,1012.8
2022-10-18T14:39:43.091Z,1012.8
2022-10-18T14:40:59.327Z,1012.8
2022-10-18T14:42:15.566Z,1012.8
2022-10-18T14:43:31.807Z,1012.8
2022-10-18T14:44:48.049Z,1012.8
2022-10-18T14:46:03.311Z,1012.8
2022-10-18T14:47:19.548Z,1012.8
2022-10-18T14:48:35.797Z,1012.8
2022-10-18T14:49:52.025Z,1012.8
2022-10-18T14:51:08.266Z,1012.8
2022-10-18T14:52:24.514Z,1012.8
2022-10-18T14:53:40.748Z,1012.8
2022-10-18T14:54:56.989Z,1012.8
2022-10-18T14:56:13.238Z,1012.7
2022-10-18T14:57:29.466Z,1012.7
2022-10-18T15:00:01.957Z,1012.7
2022-10-18T15:01:18.179Z,1012.8
2022-10-18T15:02:33.436Z,1012.8
2022-10-18T15:03:49.679Z,1012.8
2022-10-18T15:05:05.920Z,1012.9
2022-10-18T15:06:22.156Z,1012.9
2022-10-18T15:07:38.390Z,1012.9
2022-10-18T15:08:54.646Z,1012.9
2022-10-18T15:10:10.887Z,1012.8
2022-10-18T15:11:27.117Z,1012.8
2022-10-18T15:12:43.355Z,1012.8
2022-10-18T15:13:59.599Z,1012.8
2022-10-18T15:15:15.839Z,1012.9
2022-10-18T15:16:32.072Z,1012.9
2022-10-18T15:17:48.302Z,1012.8
2022-10-18T15:19:03.560Z,1012.8
2022-10-18T15:20:19.799Z,1012.9
2022-10-18T15:21:36.037Z,1012.9
2022-10-18T15:22:52.273Z,1012.9
2022-10-18T15:24:08.522Z,1012.9
2022-10-18T15:25:24.749Z,1012.9
2022-10-18T15:26:40.996Z,1012.9
2022-10-18T15:27:57.244Z,1012.9
2022-10-18T15:29:13.476Z,1012.9
2022-10-18T15:30:29.706Z,1012.9
2022-10-18T15:31:45.946Z,1012.9
2022-10-18T15:33:02.186Z,1012.9
2022-10-18T15:34:18.423Z,1012.8
2022-10-18T15:35:33.683Z,1012.8
2022-10-18T15:36:49.930Z,1012.7
2022-10-18T15:38:06.170Z,1012.8
2022-10-18T15:39:22.400Z,1012.8
2022-10-18T15:40:38.631Z,1012.7
2022-10-18T15:41:54.873Z,1012.8
2022-10-18T15:43:11.117Z,1012.8
2022-10-18T15:44:27.349Z,1012.8
2022-10-18T15:45:43.000Z,1012.7
2022-10-18T15:46:59.835Z,1012.7
2022-10-18T15:48:16.077Z,1012.7
2022-10-18T15:49:32.309Z,1012.7
2022-10-18T15:50:48.543Z,1012.7
2022-10-18T15:52:03.813Z,1012.8
2022-10-18T15:53:20.034Z,1012.8
2022-10-18T15:54:36.282Z,1012.7
2022-10-18T15:55:52.511Z,1012.8
2022-10-18T15:57:08.753Z,1012.8